Time;durP1;ratioP1;P1;durP2;ratioP2;P2;SDS_P1;SDS_P2;PMS_P1;PMS_P2;Temp;Humidity;BMP_temperature;BMP_pressure;BME280_temperature;BME280_humidity;BME280_pressure;Samples;Min_cycle;Max_cycle;Signal;HPM_P1;HPM_P2
2021/06/07 00:01:19;;;;;;;0.70;0.70;;;;;;;16.17;67.04;101178.94;6286341;22;20059;-72
2021/06/07 00:03:45;;;;;;;0.50;0.50;;;;;;;16.12;66.83;101178.94;6287602;22;20027;-74
2021/06/07 00:06:11;;;;;;;0.80;0.80;;;;;;;16.05;67.17;101177.34;6309543;22;20003;-75
2021/06/07 00:08:36;;;;;;;0.50;0.50;;;;;;;16.05;67.28;101176.53;6288427;22;20326;-74
2021/06/07 00:11:04;;;;;;;0.80;0.80;;;;;;;15.99;67.71;101175.72;6311175;22;20010;-75
2021/06/07 00:13:30;;;;;;;0.85;0.85;;;;;;;15.98;67.46;101178.75;6286012;22;20093;-75
2021/06/07 00:15:56;;;;;;;1.30;1.30;;;;;;;15.92;68.33;101182.66;6284989;22;20004;-73
2021/06/07 00:18:23;;;;;;;1.20;1.20;;;;;;;15.87;68.58;101175.22;6312503;22;20003;-72
2021/06/07 00:20:54;;;;;;;1.15;1.05;;;;;;;15.81;68.19;101166.16;6286112;22;20014;-74
2021/06/07 00:23:20;;;;;;;0.60;0.60;;;;;;;15.80;68.73;101175.53;6288487;22;20318;-74
2021/06/07 00:25:46;;;;;;;0.88;0.88;;;;;;;15.76;68.38;101166.16;6316203;22;20003;-73
2021/06/07 00:28:13;;;;;;;0.93;0.93;;;;;;;15.73;68.95;101169.47;6286486;22;20011;-74
2021/06/07 00:30:39;;;;;;;0.90;0.90;;;;;;;15.74;68.71;101164.78;6313747;22;20003;-74
2021/06/07 00:33:05;;;;;;;0.77;0.77;;;;;;;15.78;69.18;101179.66;6313194;22;20003;-74
2021/06/07 00:35:31;;;;;;;0.93;0.93;;;;;;;15.80;68.84;101174.69;6288294;22;20015;-75
2021/06/07 00:37:56;;;;;;;1.25;1.15;;;;;;;15.81;68.84;101176.34;6315637;22;20003;-75
2021/06/07 00:40:27;;;;;;;1.17;1.17;;;;;;;15.81;68.88;101168.94;6286402;22;20009;-74
2021/06/07 00:42:54;;;;;;;0.90;0.90;;;;;;;15.83;68.70;101174.97;6285756;22;20018;-73
2021/06/07 00:45:27;;;;;;;0.90;0.90;;;;;;;15.83;68.65;101169.47;6316713;22;20023;-74
2021/06/07 00:47:56;;;;;;;0.90;0.60;;;;;;;15.82;68.89;101161.47;6287280;22;20064;-74
2021/06/07 00:50:33;;;;;;;0.50;0.50;;;;;;;15.82;68.89;101167.78;6315420;22;20007;-73
2021/06/07 00:53:03;;;;;;;0.65;0.65;;;;;;;15.81;68.51;101166.16;6310630;22;19995;-72
2021/06/07 00:55:33;;;;;;;1.10;1.10;;;;;;;15.75;68.53;101160.91;6314179;22;20007;-73
2021/06/07 00:58:00;;;;;;;1.02;1.02;;;;;;;15.74;68.87;101162.88;6313090;22;20033;-73
2021/06/07 01:00:26;;;;;;;1.00;1.00;;;;;;;15.71;69.12;101160.63;6314782;22;19999;-73
2021/06/07 01:02:53;;;;;;;1.95;1.85;;;;;;;15.74;69.26;101168.38;6287402;22;20057;-75
2021/06/07 01:05:19;;;;;;;1.90;1.80;;;;;;;15.71;69.54;101161.50;6286201;22;20018;-75
2021/06/07 01:07:45;;;;;;;2.13;2.03;;;;;;;15.69;69.55;101160.94;6315352;22;20010;-75
2021/06/07 01:10:13;;;;;;;2.65;2.55;;;;;;;15.76;69.93;101170.84;6261623;22;20015;-74
2021/06/07 01:12:39;;;;;;;2.45;2.35;;;;;;;15.78;70.37;101166.72;6315891;22;20417;-74
2021/06/07 01:15:08;;;;;;;2.30;2.20;;;;;;;15.78;70.24;101161.19;6316591;22;20015;-73
2021/06/07 01:17:33;;;;;;;2.28;2.17;;;;;;;15.79;70.18;101168.38;6314723;22;20007;-74
2021/06/07 01:19:59;;;;;;;3.58;3.35;;;;;;;15.80;70.60;101159.00;6317605;22;20014;-75
2021/06/07 01:22:25;;;;;;;3.03;2.92;;;;;;;15.77;70.13;101159.53;6316197;22;20078;-74
2021/06/07 01:24:51;;;;;;;2.80;2.70;;;;;;;15.76;70.86;101160.63;6285877;22;20019;-76
2021/06/07 01:27:17;;;;;;;3.35;3.05;;;;;;;15.73;70.66;101158.44;6279951;22;20007;-76
2021/06/07 01:29:42;;;;;;;2.85;2.30;;;;;;;15.69;70.63;101162.88;6289262;22;20033;-76
2021/06/07 01:32:08;;;;;;;2.03;1.92;;;;;;;15.71;70.35;101155.97;6291302;22;20025;-77
2021/06/07 01:34:34;;;;;;;2.33;2.22;;;;;;;15.74;70.37;101165.63;6267102;22;20023;-76
2021/06/07 01:37:01;;;;;;;2.55;2.45;;;;;;;15.72;70.16;101151.28;6294817;22;20027;-77
2021/06/07 01:39:27;;;;;;;2.58;2.47;;;;;;;15.69;70.85;101154.59;6322014;22;20007;-74
2021/06/07 01:41:54;;;;;;;3.63;3.47;;;;;;;15.62;70.51;101154.06;6261248;22;20045;-76
2021/06/07 01:44:20;;;;;;;3.70;3.50;;;;;;;15.59;71.05;101152.69;6315858;22;20004;-76
2021/06/07 01:46:46;;;;;;;4.78;4.47;;;;;;;15.56;70.92;101158.78;6314490;22;20003;-75
2021/06/07 01:49:12;;;;;;;3.83;3.63;;;;;;;15.56;71.57;101152.47;6291177;22;20033;-76
2021/06/07 01:51:37;;;;;;;2.95;2.85;;;;;;;15.54;71.39;101150.78;6318889;22;20000;-76
2021/06/07 01:54:03;;;;;;;2.28;2.08;;;;;;;15.53;70.64;101151.91;6316282;22;20007;-75
2021/06/07 01:56:29;;;;;;;2.55;2.42;;;;;;;15.51;70.90;101150.56;6290048;22;20011;-75
2021/06/07 01:58:55;;;;;;;3.22;3.10;;;;;;;15.46;70.86;101147.78;6316188;22;20437;-75
2021/06/07 02:01:21;;;;;;;2.47;2.38;;;;;;;15.39;71.09;101147.28;6289353;22;20082;-74
2021/06/07 02:03:48;;;;;;;3.13;3.03;;;;;;;15.30;71.65;101142.34;6287062;22;20448;-76
2021/06/07 02:06:22;;;;;;;2.15;1.75;;;;;;;15.23;71.59;101138.22;6289134;22;20025;-77
2021/06/07 02:08:50;;;;;;;2.03;1.92;;;;;;;15.25;71.36;101147.06;6316783;22;20074;-77
2021/06/07 02:11:21;;;;;;;4.13;3.88;;;;;;;15.17;72.01;101130.00;6300148;22;20006;-79
2021/06/07 02:13:58;;;;;;;4.68;4.47;;;;;;;15.22;71.54;101142.09;6301557;22;20017;-79
2021/06/07 02:16:30;;;;;;;2.90;2.80;;;;;;;15.18;71.54;101142.63;6326214;22;20010;-80
2021/06/07 02:18:56;;;;;;;5.22;3.72;;;;;;;15.16;71.73;101144.88;6326237;22;19995;-78
2021/06/07 02:21:24;;;;;;;4.18;3.97;;;;;;;15.12;72.41;101154.78;6322780;22;20007;-77
2021/06/07 02:23:53;;;;;;;4.13;3.92;;;;;;;14.97;72.45;101141.06;6295997;22;20038;-77
2021/06/07 02:26:21;;;;;;;4.18;3.97;;;;;;;14.95;72.97;101152.34;6294282;22;19999;-77
2021/06/07 02:28:53;;;;;;;2.65;2.55;;;;;;;14.98;73.18;101142.69;6295716;22;20007;-76
2021/06/07 02:31:20;;;;;;;3.47;3.28;;;;;;;14.93;72.45;101145.47;6323161;22;20007;-77
2021/06/07 02:33:51;;;;;;;2.60;2.50;;;;;;;14.93;72.65;101150.97;6295965;22;20014;-77
2021/06/07 02:36:16;;;;;;;3.78;3.58;;;;;;;14.92;73.10;101160.31;6318987;22;20010;-79
2021/06/07 02:38:44;;;;;;;4.38;4.18;;;;;;;14.87;72.65;101155.66;6316680;22;20007;-77
2021/06/07 02:41:19;;;;;;;4.13;3.92;;;;;;;14.76;72.91;101157.59;6314681;22;19999;-75
2021/06/07 02:43:45;;;;;;;4.72;4.53;;;;;;;14.75;73.58;101166.97;6315447;22;20006;-76
2021/06/07 02:46:13;;;;;;;4.13;3.83;;;;;;;14.65;74.07;101147.69;6260626;22;20015;-76
2021/06/07 02:48:41;;;;;;;4.43;4.22;;;;;;;14.61;73.93;101150.16;6315369;22;20412;-77
2021/06/07 02:51:07;;;;;;;4.90;4.70;;;;;;;14.57;74.22;101142.69;6313727;22;20013;-77
2021/06/07 02:53:32;;;;;;;3.95;3.75;;;;;;;14.53;74.08;101153.44;6288227;22;20003;-75
2021/06/07 02:55:58;;;;;;;4.93;4.57;;;;;;;14.48;74.01;101140.50;6314733;22;20006;-75
2021/06/07 02:58:24;;;;;;;3.22;3.03;;;;;;;14.56;74.37;101157.56;6313883;22;20070;-74
2021/06/07 03:00:55;;;;;;;3.65;3.45;;;;;;;14.44;74.74;101139.41;6287757;22;20006;-76
2021/06/07 03:03:23;;;;;;;3.65;3.17;;;;;;;14.51;74.47;101165.81;6313473;22;20023;-76
2021/06/07 03:05:52;;;;;;;3.03;2.92;;;;;;;14.51;74.88;101166.63;6315088;22;20007;-76
2021/06/07 03:08:20;;;;;;;2.05;1.95;;;;;;;14.55;74.58;101161.44;6278684;22;20030;-74
2021/06/07 03:10:49;;;;;;;4.38;4.07;;;;;;;14.58;74.47;101160.88;6288881;22;20030;-73
2021/06/07 03:13:17;;;;;;;2.50;2.40;;;;;;;14.61;75.07;101155.66;6313568;22;20078;-73
2021/06/07 03:15:45;;;;;;;2.95;2.85;;;;;;;14.60;74.42;101153.16;6291161;22;20007;-75
2021/06/07 03:18:11;;;;;;;3.40;3.30;;;;;;;14.57;74.49;101157.31;6263723;22;20011;-74
2021/06/07 03:20:37;;;;;;;3.33;3.13;;;;;;;14.45;74.19;101141.03;6290021;22;20011;-75
2021/06/07 03:23:11;;;;;;;4.07;3.88;;;;;;;14.41;74.70;101139.97;6318955;22;19992;-81
2021/06/07 03:25:44;;;;;;;4.05;3.63;;;;;;;14.45;75.02;101152.03;6293960;22;19999;-77
2021/06/07 03:28:14;;;;;;;3.30;3.10;;;;;;;14.44;75.13;101155.91;6289329;22;20014;-76
2021/06/07 03:30:41;;;;;;;3.63;3.45;;;;;;;14.43;74.53;101151.50;6318145;22;20015;-75
2021/06/07 03:33:08;;;;;;;4.10;3.90;;;;;;;14.42;74.88;101157.28;6316688;22;20037;-75
2021/06/07 03:35:34;;;;;;;3.47;3.28;;;;;;;14.42;75.03;101147.09;6287218;22;20015;-77
2021/06/07 03:38:09;;;;;;;4.22;3.92;;;;;;;14.29;74.91;101131.13;6265547;22;20063;-76
2021/06/07 03:40:38;;;;;;;4.35;4.13;;;;;;;14.41;75.31;101139.97;6291345;22;20067;-76
2021/06/07 03:43:04;;;;;;;2.97;2.88;;;;;;;14.40;74.85;101143.00;6315875;22;20322;-75
2021/06/07 03:45:30;;;;;;;3.08;2.97;;;;;;;14.41;74.92;101145.47;6318266;22;20781;-76
2021/06/07 03:47:55;;;;;;;4.38;4.18;;;;;;;14.40;75.10;101143.81;6290645;22;20027;-78
2021/06/07 03:50:24;;;;;;;3.50;3.33;;;;;;;14.40;75.26;101143.00;6265877;22;20329;-77
2021/06/07 03:52:50;;;;;;;2.80;2.70;;;;;;;14.45;75.20;101146.53;6319025;22;20011;-76
2021/06/07 03:55:17;;;;;;;3.13;2.92;;;;;;;14.51;74.95;101138.31;6264417;22;20011;-75
2021/06/07 03:57:42;;;;;;;4.90;4.22;;;;;;;14.53;74.57;101141.59;6317455;22;20007;-76
2021/06/07 04:00:11;;;;;;;4.78;4.47;;;;;;;14.47;74.90;101129.75;6290951;22;20018;-78
2021/06/07 04:02:37;;;;;;;7.40;4.28;;;;;;;14.52;75.05;101135.28;6290217;22;20031;-77
2021/06/07 04:05:04;;;;;;;4.90;4.60;;;;;;;14.52;74.92;101139.97;6290383;22;20007;-76
2021/06/07 04:07:29;;;;;;;5.85;5.53;;;;;;;14.48;75.18;101148.78;6315715;22;20078;-76
2021/06/07 04:09:55;;;;;;;5.57;5.28;;;;;;;14.40;75.20;101143.81;6316189;22;20064;-75
2021/06/07 04:12:21;;;;;;;4.78;4.57;;;;;;;14.37;75.53;101149.84;6316545;22;20003;-76
2021/06/07 04:14:47;;;;;;;5.53;5.13;;;;;;;14.31;75.70;101139.97;6288470;22;20003;-75
2021/06/07 04:17:12;;;;;;;6.22;5.68;;;;;;;14.30;76.23;101138.28;6281627;22;20456;-75
2021/06/07 04:19:38;;;;;;;6.40;5.88;;;;;;;14.27;76.20;101136.09;6317012;22;20330;-76
2021/06/07 04:22:04;;;;;;;3.03;2.92;;;;;;;14.33;76.37;101137.75;6318184;22;20007;-76
2021/06/07 04:24:30;;;;;;;6.30;5.80;;;;;;;14.35;76.45;101137.47;6289869;22;20007;-77
2021/06/07 04:26:55;;;;;;;6.95;6.45;;;;;;;14.31;76.41;101131.69;6289706;22;20011;-76
2021/06/07 04:29:21;;;;;;;6.82;6.05;;;;;;;14.29;76.33;101133.88;6289462;22;20011;-74
2021/06/07 04:31:47;;;;;;;6.43;5.55;;;;;;;14.28;77.02;101134.97;6290038;22;20000;-77
2021/06/07 04:34:12;;;;;;;6.05;5.55;;;;;;;14.29;76.96;101136.63;6289634;22;20015;-76
2021/06/07 04:36:37;;;;;;;7.88;7.18;;;;;;;14.27;76.30;101138.84;6283912;22;20011;-76
2021/06/07 04:39:05;;;;;;;5.88;5.47;;;;;;;14.24;77.06;101140.22;6265076;22;20361;-76
2021/06/07 04:41:31;;;;;;;4.10;3.85;;;;;;;14.27;77.03;101144.34;6316446;22;20015;-75
2021/06/07 04:43:57;;;;;;;4.72;4.43;;;;;;;14.28;76.91;101145.97;6316712;22;20060;-77
2021/06/07 04:46:22;;;;;;;4.60;4.05;;;;;;;14.37;76.95;101147.09;6288245;22;20056;-75
2021/06/07 04:48:50;;;;;;;5.20;4.90;;;;;;;14.40;76.87;101148.50;6315517;22;20441;-76
2021/06/07 04:51:16;;;;;;;3.53;3.33;;;;;;;14.47;76.98;101158.13;6316328;22;19999;-76
2021/06/07 04:53:44;;;;;;;4.53;4.28;;;;;;;14.53;76.84;101169.13;6290826;22;20061;-75
2021/06/07 04:56:10;;;;;;;4.75;4.45;;;;;;;14.55;75.77;101155.94;6316058;22;20031;-78
2021/06/07 04:58:36;;;;;;;3.90;3.67;;;;;;;14.65;76.32;101164.22;6290345;22;19999;-76
2021/06/07 05:01:12;;;;;;;3.92;3.72;;;;;;;14.69;75.96;101151.56;6318101;22;20009;-76
2021/06/07 05:03:38;;;;;;;3.50;3.30;;;;;;;14.69;76.24;101140.53;6317382;22;20084;-75
2021/06/07 05:06:05;;;;;;;3.00;2.90;;;;;;;14.91;75.64;101158.66;6318665;22;20796;-76
2021/06/07 05:08:32;;;;;;;4.88;4.57;;;;;;;14.98;75.09;101164.72;6317714;22;20018;-77
2021/06/07 05:11:01;;;;;;;7.72;5.97;;;;;;;15.04;74.67;101162.78;6318235;22;20057;-75
2021/06/07 05:13:32;;;;;;;6.45;5.00;;;;;;;15.02;75.04;101152.06;6287597;22;20006;-76
2021/06/07 05:16:03;;;;;;;5.25;4.95;;;;;;;15.00;74.36;101155.09;6314856;22;20003;-75
2021/06/07 05:18:29;;;;;;;5.70;5.25;;;;;;;15.09;74.79;101169.13;6312472;22;20014;-76
2021/06/07 05:20:55;;;;;;;7.90;6.95;;;;;;;15.06;74.26;101171.63;6319302;22;20006;-77
2021/06/07 05:23:22;;;;;;;5.72;5.30;;;;;;;14.99;74.07;101166.38;6318209;22;20003;-76
2021/06/07 05:25:48;;;;;;;4.50;4.18;;;;;;;14.99;74.63;101149.84;6288475;22;20003;-76
2021/06/07 05:28:21;;;;;;;6.20;5.78;;;;;;;14.96;75.01;101142.16;6289478;22;20013;-76
2021/06/07 05:30:49;;;;;;;5.15;4.85;;;;;;;14.89;74.42;101138.84;6288053;22;20060;-77
2021/06/07 05:33:17;;;;;;;5.07;4.72;;;;;;;14.94;74.60;101163.66;6292772;22;20028;-78
2021/06/07 05:35:47;;;;;;;4.00;3.80;;;;;;;14.94;74.26;101153.44;6291936;22;20023;-78
2021/06/07 05:38:14;;;;;;;3.72;3.53;;;;;;;15.05;74.47;101165.25;6319767;22;19999;-78
2021/06/07 05:40:41;;;;;;;4.68;4.38;;;;;;;15.07;74.16;101168.59;6291342;22;20029;-79
2021/06/07 05:43:07;;;;;;;4.90;4.60;;;;;;;15.08;73.93;101170.22;6267571;22;20007;-78
2021/06/07 05:45:41;;;;;;;6.90;6.15;;;;;;;15.09;74.51;101177.38;6295516;22;20029;-77
2021/06/07 05:48:07;;;;;;;6.28;4.22;;;;;;;15.10;73.74;101175.44;6318875;22;20002;-77
2021/06/07 05:50:47;;;;;;;;;;;;;;;;;;;;;
2021/06/07 05:53:21;;;;;;;7.57;5.05;;;;;;;15.10;73.66;101156.16;6319018;22;20019;-77
2021/06/07 05:55:47;;;;;;;6.20;5.00;;;;;;;15.11;73.83;101163.31;6292623;22;20060;-76
2021/06/07 05:58:23;;;;;;;5.22;4.90;;;;;;;15.16;73.80;101172.41;6290431;22;20321;-78
2021/06/07 06:00:50;;;;;;;6.40;5.55;;;;;;;15.18;73.52;101180.38;6316825;22;19999;-77
2021/06/07 06:03:19;;;;;;;6.32;5.72;;;;;;;15.15;73.42;101176.25;6267725;22;20379;-78
2021/06/07 06:05:45;;;;;;;6.72;6.05;;;;;;;15.16;73.29;101180.69;6294102;22;20018;-78
2021/06/07 06:08:11;;;;;;;5.68;5.38;;;;;;;15.16;73.45;101177.09;6267914;22;20021;-77
2021/06/07 06:10:40;;;;;;;5.13;4.82;;;;;;;15.18;73.11;101172.94;6314273;22;20007;-75
2021/06/07 06:13:06;;;;;;;6.00;4.55;;;;;;;15.25;73.33;101166.34;6319233;22;20004;-77
2021/06/07 06:15:35;;;;;;;6.47;5.85;;;;;;;15.33;72.96;101171.25;6318277;22;20010;-80
2021/06/07 06:18:01;;;;;;;6.50;4.90;;;;;;;15.38;73.23;101179.53;6286221;22;19999;-76
2021/06/07 06:20:30;;;;;;;4.65;4.30;;;;;;;15.37;72.73;101161.34;6238702;22;20007;-76
2021/06/07 06:22:59;;;;;;;5.15;4.75;;;;;;;15.58;72.15;101177.78;6288925;22;20000;-75
2021/06/07 06:25:27;;;;;;;3.67;3.47;;;;;;;15.71;71.94;101177.19;6289995;22;20003;-76
2021/06/07 06:27:53;;;;;;;7.70;6.95;;;;;;;15.74;71.33;101182.16;6290414;22;20006;-78
2021/06/07 06:30:28;;;;;;;6.28;5.97;;;;;;;15.70;71.58;101192.91;6286794;22;20070;-75
2021/06/07 06:32:57;;;;;;;5.35;4.95;;;;;;;15.64;71.39;101190.47;6288834;22;20026;-77
2021/06/07 06:35:23;;;;;;;6.15;5.70;;;;;;;15.54;72.10;101186.63;6284530;22;20019;-76
2021/06/07 06:37:49;;;;;;;6.10;5.60;;;;;;;15.52;71.83;101185.25;6265008;22;20022;-76
2021/06/07 06:40:23;;;;;;;5.53;4.70;;;;;;;15.59;71.99;101190.47;6288509;22;20003;-74
2021/06/07 06:42:52;;;;;;;5.30;4.95;;;;;;;15.59;71.43;101191.28;6317553;22;20003;-74
2021/06/07 06:45:19;;;;;;;4.35;4.13;;;;;;;15.63;71.62;101197.09;6288876;22;20011;-74
2021/06/07 06:47:45;;;;;;;4.10;3.83;;;;;;;15.68;71.19;101199.81;6319228;22;20007;-75
2021/06/07 06:50:12;;;;;;;3.72;3.30;;;;;;;15.65;70.87;101197.63;6294340;22;20003;-75
2021/06/07 06:52:38;;;;;;;3.33;3.10;;;;;;;15.67;70.81;101198.19;6292016;22;20019;-74
2021/06/07 06:55:06;;;;;;;3.25;3.08;;;;;;;15.69;70.74;101201.47;6293142;22;20014;-75
2021/06/07 06:57:31;;;;;;;4.55;3.30;;;;;;;15.78;70.21;101197.03;6289339;22;20031;-75
2021/06/07 06:59:57;;;;;;;3.53;3.42;;;;;;;15.85;70.37;101200.31;6293917;22;20024;-74
2021/06/07 07:02:23;;;;;;;4.00;3.22;;;;;;;15.85;69.95;101200.31;6292582;22;20014;-73
2021/06/07 07:04:48;;;;;;;3.53;3.33;;;;;;;15.84;69.57;101198.69;6290299;22;19995;-74
2021/06/07 07:07:15;;;;;;;3.42;3.33;;;;;;;15.81;70.00;101198.41;6317619;22;20007;-74
2021/06/07 07:09:43;;;;;;;4.45;4.15;;;;;;;15.77;69.97;101198.13;6264367;22;20082;-74
2021/06/07 07:12:12;;;;;;;6.05;4.80;;;;;;;15.66;70.01;101191.00;6289323;22;20006;-74
2021/06/07 07:14:39;;;;;;;4.30;4.10;;;;;;;15.77;70.56;101211.09;6316918;22;19999;-75
2021/06/07 07:17:04;;;;;;;4.30;4.10;;;;;;;15.86;70.55;101201.97;6316729;22;20330;-74
2021/06/07 07:19:33;;;;;;;4.53;4.25;;;;;;;16.00;69.97;101196.69;6290116;22;20014;-74
2021/06/07 07:22:02;;;;;;;3.80;3.60;;;;;;;15.98;69.68;101187.84;6290119;22;20645;-75
2021/06/07 07:24:28;;;;;;;3.40;3.30;;;;;;;16.21;69.00;101200.16;6318058;22;20003;-76
2021/06/07 07:26:53;;;;;;;4.32;3.88;;;;;;;16.37;68.95;101205.59;6290716;22;20303;-73
2021/06/07 07:29:19;;;;;;;3.63;3.33;;;;;;;16.43;68.59;101209.94;6316814;22;20003;-76
2021/06/07 07:31:44;;;;;;;3.10;3.00;;;;;;;16.62;68.66;101212.00;6316738;22;20007;-73
2021/06/07 07:34:10;;;;;;;3.50;3.30;;;;;;;16.70;67.48;101219.69;6288716;22;20177;-75
2021/06/07 07:36:35;;;;;;;2.97;2.88;;;;;;;16.78;67.30;101219.06;6288414;22;20019;-75
2021/06/07 07:39:06;;;;;;;4.53;4.22;;;;;;;16.77;66.60;101220.19;6293778;22;20011;-76
2021/06/07 07:41:31;;;;;;;5.20;4.80;;;;;;;16.71;67.10;101233.22;6315068;22;20043;-75
2021/06/07 07:43:57;;;;;;;4.10;3.20;;;;;;;16.62;66.94;101231.34;6316908;22;20007;-76
2021/06/07 07:46:22;;;;;;;3.47;3.00;;;;;;;16.58;67.25;101231.09;6289505;22;20007;-75
2021/06/07 07:48:49;;;;;;;3.15;2.95;;;;;;;16.60;67.48;101220.56;6287185;22;20022;-75
2021/06/07 07:51:15;;;;;;;4.57;3.33;;;;;;;16.60;67.00;101228.06;6312186;22;19999;-76
2021/06/07 07:53:43;;;;;;;2.80;2.70;;;;;;;16.51;67.48;101223.13;6312123;22;19999;-75
2021/06/07 07:56:09;;;;;;;4.30;4.03;;;;;;;16.55;67.18;101221.44;6285986;22;20023;-78
2021/06/07 07:58:35;;;;;;;3.28;3.17;;;;;;;16.62;67.41;101223.06;6290083;22;20014;-78
2021/06/07 08:01:01;;;;;;;3.85;3.53;;;;;;;16.65;67.41;101222.50;6262655;22;20019;-76
2021/06/07 08:03:26;;;;;;;3.53;3.22;;;;;;;16.67;66.81;101225.78;6318708;22;20025;-76
2021/06/07 08:05:52;;;;;;;3.03;2.83;;;;;;;16.73;66.90;101219.94;6262742;22;20007;-76
2021/06/07 08:08:17;;;;;;;2.50;2.40;;;;;;;16.92;66.60;101233.06;6312214;22;20318;-75
2021/06/07 08:10:46;;;;;;;2.40;2.15;;;;;;;16.93;65.94;101235.53;6286457;22;20037;-74
2021/06/07 08:13:11;;;;;;;2.58;2.30;;;;;;;16.91;65.76;101237.78;6288658;22;20007;-75
2021/06/07 08:15:54;;;;;;;3.25;1.98;;;;;;;16.87;65.69;101228.41;6262201;22;20031;-75
2021/06/07 08:18:22;;;;;;;2.58;2.45;;;;;;;17.03;65.82;101242.09;6282708;22;20011;-75
2021/06/07 08:20:50;;;;;;;1.48;1.45;;;;;;;17.20;65.43;101248.03;6288803;22;20000;-75
2021/06/07 08:23:16;;;;;;;1.85;1.75;;;;;;;17.32;64.66;101236.59;6290420;22;20028;-75
2021/06/07 08:25:41;;;;;;;1.92;1.83;;;;;;;17.47;64.05;101243.88;6284776;22;20131;-74
2021/06/07 08:28:07;;;;;;;1.63;1.63;;;;;;;17.62;63.50;101252.03;6290097;22;20082;-76
2021/06/07 08:30:34;;;;;;;2.05;1.85;;;;;;;17.83;63.07;101242.66;6317475;22;20394;-77
2021/06/07 08:33:00;;;;;;;1.23;1.23;;;;;;;18.09;62.83;101232.13;6290263;22;20007;-75
2021/06/07 08:35:25;;;;;;;1.95;1.85;;;;;;;18.42;62.09;101233.03;6288427;22;20023;-74
2021/06/07 08:37:51;;;;;;;1.88;1.77;;;;;;;18.78;61.15;101226.94;6291666;22;20023;-73
2021/06/07 08:40:17;;;;;;;1.05;0.95;;;;;;;19.13;61.09;101237.78;6317553;22;20053;-74
2021/06/07 08:42:44;;;;;;;1.10;1.10;;;;;;;19.42;59.26;101236.69;6318905;22;20011;-73
2021/06/07 08:45:12;;;;;;;1.15;1.15;;;;;;;19.43;58.08;101219.72;6288287;22;20037;-75
2021/06/07 08:47:44;;;;;;;0.93;0.93;;;;;;;19.37;58.07;101232.06;6316323;22;20000;-74
2021/06/07 08:50:14;;;;;;;1.00;1.00;;;;;;;19.47;58.34;101231.03;6284743;22;20010;-76
2021/06/07 08:52:43;;;;;;;1.58;1.50;;;;;;;19.53;57.68;101229.81;6291044;22;20010;-75
2021/06/07 08:55:11;;;;;;;1.30;1.20;;;;;;;19.52;57.49;101237.31;6289974;22;20112;-76
2021/06/07 08:57:46;;;;;;;1.50;1.40;;;;;;;19.46;57.50;101241.31;6288861;22;20011;-75
2021/06/07 09:00:15;;;;;;;1.50;1.40;;;;;;;19.35;56.85;101231.53;6316951;22;20003;-75
2021/06/07 09:02:42;;;;;;;1.52;1.40;;;;;;;19.41;57.41;101232.28;6317103;22;20003;-75
2021/06/07 09:05:18;;;;;;;1.70;1.60;;;;;;;19.58;56.79;101232.50;6318524;22;20003;-74
2021/06/07 09:08:09;;;;;;;;;;;;;;;19.85;55.30;101236.44;6316878;22;20026;-75
2021/06/07 09:10:42;;;;;;;1.70;1.60;;;;;;;19.61;55.85;101234.66;6311044;22;19910;-76
2021/06/07 09:13:12;;;;;;;1.48;1.38;;;;;;;19.41;56.16;101243.38;6314993;22;20053;-76
2021/06/07 09:15:53;;;;;;;1.52;1.42;;;;;;;19.31;57.08;101234.09;6316600;22;20007;-74
2021/06/07 09:18:35;;;;;;;1.13;1.02;;;;;;;19.43;57.10;101235.56;6288063;22;20015;-74
2021/06/07 09:21:12;;;;;;;1.60;1.50;;;;;;;19.56;57.17;101234.75;6288028;22;19999;-73
2021/06/07 09:23:56;;;;;;;1.25;1.25;;;;;;;19.75;56.75;101248.50;6285771;22;20003;-74
2021/06/07 09:26:33;;;;;;;1.58;1.40;;;;;;;19.83;56.60;101235.91;6314100;22;20029;-76
2021/06/07 09:29:03;;;;;;;1.42;1.33;;;;;;;20.07;55.65;101240.41;6314996;22;20005;-74
2021/06/07 09:31:35;;;;;;;1.10;1.10;;;;;;;20.25;54.34;101250.53;6316598;22;20430;-75
2021/06/07 09:34:04;;;;;;;1.98;1.88;;;;;;;20.25;53.48;101247.78;6288120;22;20003;-75
2021/06/07 09:36:32;;;;;;;2.00;1.90;;;;;;;20.27;54.21;101251.06;6316743;22;20048;-75
2021/06/07 09:39:07;;;;;;;1.50;1.40;;;;;;;20.36;54.25;101251.97;6313430;22;20007;-76
2021/06/07 09:41:45;;;;;;;2.25;1.83;;;;;;;20.48;54.22;101256.16;6315552;22;20647;-76
2021/06/07 09:44:31;;;;;;;7.88;1.40;;;;;;;20.56;53.25;101255.44;6287830;22;20026;-75
2021/06/07 09:47:15;;;;;;;1.45;1.35;;;;;;;20.43;53.62;101256.28;6315441;22;20017;-75
2021/06/07 09:50:06;;;;;;;1.30;1.27;;;;;;;20.19;53.08;101249.03;6286647;22;20032;-74
2021/06/07 09:52:33;;;;;;;1.50;1.40;;;;;;;19.95;53.70;101252.88;6277125;22;20444;-75
2021/06/07 09:55:08;;;;;;;3.45;1.10;;;;;;;19.89;54.46;101254.09;6287557;22;20035;-73
2021/06/07 09:57:41;;;;;;;1.30;0.95;;;;;;;19.96;54.64;101254.53;6314209;22;20078;-72
2021/06/07 10:00:11;;;;;;;0.80;0.80;;;;;;;20.21;54.40;101255.91;6284179;22;20038;-72
2021/06/07 10:02:40;;;;;;;1.60;1.50;;;;;;;20.45;53.20;101251.25;6308660;22;20003;-74
2021/06/07 10:05:10;;;;;;;0.60;0.60;;;;;;;20.68;52.97;101252.94;6309320;22;20078;-72
2021/06/07 10:07:36;;;;;;;1.13;1.13;;;;;;;21.16;52.30;101261.75;6285277;22;20011;-73
2021/06/07 10:10:18;;;;;;;0.47;0.47;;;;;;;21.43;51.81;101258.00;6282273;22;20445;-74
2021/06/07 10:12:53;;;;;;;0.73;0.73;;;;;;;21.45;50.91;101258.53;6283485;22;20074;-77
2021/06/07 10:15:54;;;;;;;0.40;0.40;;;;;;;21.64;50.76;101272.22;6279387;22;20346;-71
2021/06/07 10:18:22;;;;;;;1.02;1.02;;;;;;;21.53;49.52;101268.06;6309332;22;20067;-72
2021/06/07 10:20:50;;;;;;;0.95;0.95;;;;;;;21.61;50.10;101261.69;6308536;22;20027;-72
2021/06/07 10:23:29;;;;;;;0.68;0.68;;;;;;;21.94;49.94;101258.56;6307202;22;20402;-71
2021/06/07 10:25:58;;;;;;;0.75;0.75;;;;;;;22.22;48.28;101263.88;6280966;22;20011;-72
2021/06/07 10:28:26;;;;;;;0.95;0.93;;;;;;;22.27;47.72;101266.50;6314296;22;20007;-71
2021/06/07 10:30:52;;;;;;;0.60;0.60;;;;;;;22.28;48.04;101257.00;6312570;22;20022;-73
2021/06/07 10:33:38;;;;;;;0.85;0.65;;;;;;;22.56;48.10;101257.56;6312504;22;20029;-69
2021/06/07 10:36:22;;;;;;;1.10;0.63;;;;;;;23.23;47.86;101268.50;6314019;22;20377;-73
2021/06/07 10:38:49;;;;;;;0.77;0.70;;;;;;;23.42;46.21;101266.16;6289007;22;20031;-73
2021/06/07 10:41:26;;;;;;;2.25;0.90;;;;;;;23.46;44.95;101269.91;6309908;22;20084;-73
2021/06/07 10:43:54;;;;;;;0.68;0.68;;;;;;;23.14;45.32;101266.56;6287330;22;20006;-72
2021/06/07 10:46:30;;;;;;;0.60;0.60;;;;;;;23.13;45.44;101264.91;6312388;22;20009;-72
2021/06/07 10:48:57;;;;;;;1.05;0.73;;;;;;;23.24;45.24;101270.13;6312950;22;20376;-72
2021/06/07 10:51:28;;;;;;;0.45;0.45;;;;;;;23.27;44.91;101263.91;6284483;22;20337;-71
2021/06/07 10:54:29;;;;;;;0.70;0.63;;;;;;;23.23;45.00;101271.28;6308508;22;20007;-72
2021/06/07 10:56:54;;;;;;;0.75;0.73;;;;;;;23.08;45.35;101273.41;6284759;22;20003;-71
2021/06/07 10:59:20;;;;;;;1.48;0.70;;;;;;;23.13;45.38;101270.50;6285623;22;20138;-72
2021/06/07 11:01:53;;;;;;;1.00;0.80;;;;;;;23.18;45.09;101270.31;6313022;22;20452;-72
2021/06/07 11:04:35;;;;;;;0.60;0.60;;;;;;;23.48;44.79;101270.41;6312971;22;20338;-73
2021/06/07 11:07:17;;;;;;;0.30;0.30;;;;;;;23.80;44.53;101265.34;6312928;22;20326;-73
2021/06/07 11:10:11;;;;;;;1.05;0.82;;;;;;;24.09;44.46;101269.31;6285540;22;20003;-73
2021/06/07 11:12:38;;;;;;;0.60;0.60;;;;;;;24.13;42.55;101266.69;6313217;22;19999;-73
2021/06/07 11:15:18;;;;;;;0.60;0.60;;;;;;;24.16;43.19;101266.81;6287848;22;20080;-72
2021/06/07 11:17:44;;;;;;;1.08;0.75;;;;;;;24.21;43.02;101269.41;6284871;22;20005;-74
2021/06/07 11:20:11;;;;;;;0.40;0.30;;;;;;;25.27;44.26;101270.16;6284605;22;20007;-71
2021/06/07 11:23:10;;;;;;;0.47;0.47;;;;;;;27.20;40.75;101261.75;6314181;22;20011;-74
2021/06/07 11:25:51;;;;;;;0.40;0.40;;;;;;;27.55;38.17;101279.94;6296690;22;20003;-72
2021/06/07 11:28:38;;;;;;;1.33;0.30;;;;;;;27.43;37.31;101258.38;6311150;22;20034;-73
2021/06/07 11:31:06;;;;;;;0.20;0.20;;;;;;;27.15;37.05;101262.03;6287596;22;20011;-72
2021/06/07 11:34:00;;;;;;;0.28;0.28;;;;;;;27.11;37.02;101261.13;6279236;22;20013;-70
2021/06/07 11:36:50;;;;;;;0.30;0.30;;;;;;;27.31;37.27;101256.44;6314244;22;20015;-71